createdAt,value
2022-11-09T15:02:31.817Z,20.56
2022-11-09T15:05:00.137Z,20.54
2022-11-09T15:07:28.469Z,20.54
2022-11-09T15:09:57.352Z,20.54
2022-11-09T15:12:24.091Z,20.56
2022-11-09T15:14:52.862Z,20.57
2022-11-09T15:17:31.758Z,20.56
2022-11-09T15:19:59.931Z,20.55
2022-11-09T15:22:45.417Z,20.57
2022-11-09T15:25:24.145Z,20.58
2022-11-09T15:27:59.623Z,20.62
2022-11-09T15:30:34.312Z,20.66
2022-11-09T15:33:01.245Z,20.69
2022-11-09T15:35:28.026Z,20.72
2022-11-09T15:37:55.974Z,20.74
2022-11-09T15:40:24.619Z,20.77
2022-11-09T15:42:51.246Z,20.79
2022-11-09T15:45:19.497Z,20.82
2022-11-09T15:47:50.939Z,20.84
2022-11-09T15:50:20.062Z,20.85
2022-11-09T15:52:46.932Z,20.88
2022-11-09T15:55:17.759Z,20.90
2022-11-09T15:57:44.396Z,20.91
2022-11-09T16:00:19.689Z,20.92
2022-11-09T16:02:48.150Z,20.93
2022-11-09T16:05:15.842Z,20.96
2022-11-09T16:07:50.909Z,20.97
2022-11-09T16:10:20.708Z,21.00
2022-11-09T16:12:48.100Z,21.00
2022-11-09T16:15:14.862Z,21.02
2022-11-09T16:17:41.534Z,21.02
2022-11-09T16:20:09.723Z,21.02
2022-11-09T16:22:36.697Z,21.04
2022-11-09T16:25:03.495Z,21.05
2022-11-09T16:30:19.954Z,21.04
2022-11-09T16:32:46.897Z,21.04
2022-11-09T16:35:29.299Z,21.04
2022-11-09T16:37:57.972Z,21.04
2022-11-09T16:40:26.242Z,21.04
2022-11-09T16:42:53.638Z,21.03
2022-11-09T16:45:23.022Z,21.03
2022-11-09T16:47:51.545Z,21.04
2022-11-09T16:50:18.151Z,21.04
2022-11-09T16:52:45.337Z,21.04
2022-11-09T16:55:11.916Z,21.02
2022-11-09T16:57:38.500Z,21.03
2022-11-09T17:00:06.180Z,21.03
2022-11-09T17:02:33.210Z,21.01
2022-11-09T17:04:59.806Z,21.02
2022-11-09T17:07:26.713Z,21.01
2022-11-09T17:09:53.552Z,21.00
2022-11-09T17:12:20.193Z,21.00
2022-11-09T17:14:46.793Z,20.99
2022-11-09T17:17:16.954Z,20.97
2022-11-09T17:19:46.960Z,20.99
2022-11-09T17:22:14.792Z,21.02
2022-11-09T17:24:41.706Z,21.00
2022-11-09T17:27:09.563Z,21.02
2022-11-09T17:29:38.050Z,21.05
2022-11-09T17:32:08.803Z,21.06
2022-11-09T17:34:35.793Z,21.06
2022-11-09T17:37:04.849Z,21.07
2022-11-09T17:39:31.978Z,21.07
2022-11-09T17:41:58.609Z,21.08
2022-11-09T17:44:25.236Z,21.08
2022-11-09T17:46:52.114Z,21.07
2022-11-09T17:49:18.699Z,21.05
2022-11-09T17:51:45.335Z,21.01
2022-11-09T17:54:11.890Z,20.99
2022-11-09T17:56:38.750Z,20.98
2022-11-09T17:59:05.676Z,21.00
2022-11-09T18:01:36.557Z,21.01
2022-11-09T18:04:08.260Z,21.05
2022-11-09T18:06:35.112Z,21.06
2022-11-09T18:11:48.858Z,21.11
2022-11-09T18:14:16.145Z,21.14
2022-11-09T18:16:42.960Z,21.17
2022-11-09T18:19:09.544Z,21.17
2022-11-09T18:21:36.138Z,21.19
2022-11-09T18:24:02.777Z,21.19
2022-11-09T18:26:29.564Z,21.20
2022-11-09T18:28:57.113Z,21.22
2022-11-09T18:31:23.974Z,21.22
2022-11-09T18:34:00.945Z,21.22
2022-11-09T18:36:28.249Z,21.24
2022-11-09T18:38:56.026Z,21.25
2022-11-09T18:41:23.627Z,21.25
2022-11-09T18:43:58.653Z,21.25
2022-11-09T18:46:27.077Z,21.26
2022-11-09T18:48:54.508Z,21.26
2022-11-09T18:51:21.413Z,21.25
2022-11-09T18:53:48.541Z,21.25
2022-11-09T18:56:23.326Z,21.25
2022-11-09T18:58:55.111Z,21.25
2022-11-09T19:01:25.704Z,21.23
2022-11-09T19:04:00.514Z,21.24
2022-11-09T19:06:27.326Z,21.23
2022-11-09T19:09:12.572Z,21.22
2022-11-09T19:11:39.291Z,21.22
2022-11-09T19:14:06.127Z,21.21
2022-11-09T19:16:32.791Z,21.21
2022-11-09T19:18:59.383Z,21.21
2022-11-09T19:21:27.213Z,21.20
2022-11-09T19:24:00.352Z,21.19
2022-11-09T19:26:27.035Z,21.19
2022-11-09T19:28:53.770Z,21.18
2022-11-09T19:31:22.011Z,21.16
2022-11-09T19:33:53.550Z,21.15
2022-11-09T19:36:30.250Z,21.15
2022-11-09T19:38:57.875Z,21.16
2022-11-09T19:41:25.740Z,21.16
2022-11-09T19:43:54.723Z,21.13
2022-11-09T19:46:21.790Z,21.14
2022-11-09T19:48:48.595Z,21.14
2022-11-09T19:51:16.181Z,21.14
2022-11-09T19:53:43.004Z,21.13
2022-11-09T19:56:09.899Z,21.12
2022-11-09T19:58:36.652Z,21.13
2022-11-09T20:01:07.457Z,21.13
2022-11-09T20:03:34.513Z,21.11
2022-11-09T20:06:01.556Z,21.11
2022-11-09T20:08:28.215Z,21.10
2022-11-09T20:10:55.087Z,21.08
2022-11-09T20:13:22.344Z,21.08
2022-11-09T20:15:48.974Z,21.07
2022-11-09T20:18:15.978Z,21.05
2022-11-09T20:20:42.885Z,21.04
2022-11-09T20:23:09.896Z,21.03
2022-11-09T20:25:36.532Z,21.03
2022-11-09T20:28:03.211Z,21.00
2022-11-09T20:30:30.052Z,20.98
